createdAt,value
2018-09-11T00:00:02.603Z,14.7
2018-09-11T00:15:02.976Z,14.6
2018-09-11T00:30:02.390Z,14.5
2018-09-11T00:45:02.725Z,14.4
2018-09-11T01:00:03.094Z,14.2
2018-09-11T01:15:02.397Z,14.1
2018-09-11T01:30:02.802Z,13.9
2018-09-11T01:45:03.223Z,13.8
2018-09-11T02:00:02.622Z,13.8
2018-09-11T02:15:02.914Z,13.6
2018-09-11T02:30:02.347Z,13.4
2018-09-11T02:45:02.715Z,13.4
2018-09-11T03:00:03.049Z,13.4
2018-09-11T03:15:02.393Z,13.1
2018-09-11T03:30:02.768Z,13
2018-09-11T03:45:03.227Z,12.9
2018-09-11T04:00:02.685Z,12.7
2018-09-11T04:15:03.068Z,12.6
2018-09-11T04:30:02.583Z,12.6
2018-09-11T04:45:02.924Z,12.3
2018-09-11T05:00:03.231Z,12.7
2018-09-11T05:15:02.580Z,12.6
2018-09-11T05:30:03.027Z,12.8
2018-09-11T05:45:02.328Z,13
2018-09-11T06:00:02.672Z,13.3
2018-09-11T06:15:02.973Z,13.8
2018-09-11T06:30:02.484Z,14
2018-09-11T06:45:02.816Z,14.5
2018-09-11T07:00:03.128Z,14.7
2018-09-11T07:15:02.408Z,15.2
2018-09-11T07:30:02.831Z,15.9
2018-09-11T07:45:03.183Z,16.8
2018-09-11T08:00:02.500Z,18.2
2018-09-11T08:15:02.826Z,19.3
2018-09-11T08:30:03.267Z,21
2018-09-11T08:45:02.600Z,22
2018-09-11T09:00:02.912Z,22.4
2018-09-11T09:15:03.199Z,23.3
2018-09-11T09:30:02.612Z,23.6
2018-09-11T09:45:02.924Z,24.3
2018-09-11T10:00:03.228Z,24.7
2018-09-11T10:15:02.554Z,24.9
2018-09-11T10:30:02.986Z,25.2
2018-09-11T10:45:02.395Z,25.9
2018-09-11T11:00:02.710Z,26.4
2018-09-11T11:15:03.039Z,26.5
2018-09-11T11:30:02.409Z,26.8
2018-09-11T11:45:02.731Z,27.1
2018-09-11T12:00:03.068Z,26.9
2018-09-11T12:15:02.399Z,27.8
2018-09-11T12:30:02.788Z,28.3
2018-09-11T12:45:03.090Z,28.1
2018-09-11T13:00:02.447Z,27.3
2018-09-11T13:15:02.849Z,28.6
2018-09-11T13:30:03.214Z,28.3
2018-09-11T13:45:02.553Z,27.8
2018-09-11T14:00:02.884Z,28.1
2018-09-11T14:15:03.192Z,27.2
2018-09-11T14:30:02.623Z,27.2
2018-09-11T14:45:02.907Z,27.4
2018-09-11T15:00:03.218Z,26.5
2018-09-11T15:15:02.606Z,26.8
2018-09-11T15:30:03.166Z,26.2
2018-09-11T15:45:02.511Z,25.9
2018-09-11T16:00:02.834Z,25.6
2018-09-11T16:15:03.159Z,25.3
2018-09-11T16:30:02.698Z,25.1
2018-09-11T16:45:03.100Z,24.4
2018-09-11T17:00:02.391Z,23.2
2018-09-11T17:15:02.714Z,22.4
2018-09-11T17:30:03.118Z,21.2
2018-09-11T17:45:02.474Z,20.8
2018-09-11T18:00:03.092Z,20.2
2018-09-11T18:15:02.416Z,19.7
2018-09-11T18:30:02.784Z,19
2018-09-11T18:45:03.239Z,18.6
2018-09-11T19:00:02.594Z,18.6
2018-09-11T19:15:02.968Z,18.1
2018-09-11T19:30:02.427Z,17.9
2018-09-11T19:45:02.725Z,17.8
2018-09-11T20:00:03.073Z,17.6
2018-09-11T20:15:02.392Z,17.4
2018-09-11T20:30:02.769Z,17.1
2018-09-11T20:45:03.155Z,16.8
2018-09-11T21:00:02.568Z,16.6
2018-09-11T21:15:03.070Z,16.6
2018-09-11T21:30:02.562Z,16.2
2018-09-11T21:45:02.973Z,16.2
2018-09-11T22:00:03.135Z,16.1
2018-09-11T22:15:02.541Z,15.8
2018-09-11T22:30:02.971Z,15.8
2018-09-11T22:45:02.294Z,15.8
2018-09-11T23:00:02.600Z,15.3
2018-09-11T23:15:02.924Z,15.2
2018-09-11T23:30:02.302Z,15.1
2018-09-11T23:45:02.599Z,14.8
